Time;durP1;ratioP1;P1;durP2;ratioP2;P2;SDS_P1;SDS_P2;PMS_P1;PMS_P2;Temp;Humidity;BMP_temperature;BMP_pressure;BME280_temperature;BME280_humidity;BME280_pressure;Samples;Min_cycle;Max_cycle;Signal;HPM_P1;HPM_P2
2022/01/31 00:01:24;;;;;;;19.40;1.80;;;;;;;1.41;71.24;98943.61;103794;1297;24170;-31
2022/01/31 00:03:50;;;;;;;11.10;3.20;;;;;;;1.47;71.44;98948.84;103893;1297;22523;-26
2022/01/31 00:06:16;;;;;;;10.70;1.60;;;;;;;1.40;71.24;98945.26;103926;1297;24220;-29
2022/01/31 00:08:42;;;;;;;21.10;2.80;;;;;;;1.45;71.01;98934.61;103886;1297;24230;-31
2022/01/31 00:11:08;;;;;;;19.70;2.60;;;;;;;1.36;71.14;98941.08;103896;1298;24316;-29
2022/01/31 00:13:38;;;;;;;7.80;1.20;;;;;;;1.34;71.64;98935.47;104107;1299;24315;-33
2022/01/31 00:16:06;;;;;;;15.40;2.50;;;;;;;1.23;72.28;98932.66;104278;1297;22502;-26
2022/01/31 00:18:32;;;;;;;11.30;3.90;;;;;;;1.42;71.81;98934.33;104247;1297;22893;-28
2022/01/31 00:20:58;;;;;;;6.70;1.50;;;;;;;1.31;72.14;98929.11;104255;1299;24146;-31
2022/01/31 00:23:23;;;;;;;10.90;2.60;;;;;;;1.22;72.90;98945.43;103939;1299;24437;-31
2022/01/31 00:25:49;;;;;;;18.20;1.60;;;;;;;1.11;73.58;98940.03;104052;1297;24136;-28
2022/01/31 00:28:15;;;;;;;9.90;2.40;;;;;;;1.03;74.40;98947.65;103882;1297;24194;-29
2022/01/31 00:30:41;;;;;;;28.20;2.20;;;;;;;1.17;74.06;98949.09;103869;1299;24243;-29
2022/01/31 00:33:07;;;;;;;13.90;3.20;;;;;;;1.10;74.44;98949.32;103918;1299;22839;-29
2022/01/31 00:35:32;;;;;;;24.90;3.00;;;;;;;1.16;73.63;98952.09;103809;1297;24185;-31
2022/01/31 00:37:58;;;;;;;23.00;3.70;;;;;;;1.50;71.86;98946.84;103882;1299;24121;-25
2022/01/31 00:40:24;;;;;;;19.00;3.90;;;;;;;1.27;72.45;98945.48;103848;1297;24203;-24
2022/01/31 00:42:50;;;;;;;16.80;4.20;;;;;;;1.60;71.05;98937.73;103890;1299;24299;-28
2022/01/31 00:45:23;;;;;;;9.20;2.00;;;;;;;1.63;70.34;98947.44;103623;1298;24227;-24
2022/01/31 00:47:59;;;;;;;4.10;0.70;;;;;;;1.62;69.98;98944.25;103838;1299;24323;-29
2022/01/31 00:50:25;;;;;;;11.80;1.30;;;;;;;1.31;71.45;98962.75;103859;1299;24292;-29
2022/01/31 00:52:50;;;;;;;10.50;1.60;;;;;;;1.52;71.06;98958.93;103736;1297;24198;-31
2022/01/31 00:55:16;;;;;;;20.50;3.00;;;;;;;1.51;70.32;98964.71;103602;1298;24288;-29
2022/01/31 00:57:42;;;;;;;24.00;5.50;;;;;;;1.39;70.61;98959.30;103907;1297;24193;-24
2022/01/31 01:00:10;;;;;;;23.10;2.50;;;;;;;1.61;68.97;98956.14;103885;1297;24343;-31
2022/01/31 01:02:35;;;;;;;17.60;1.90;;;;;;;1.69;68.82;98959.66;103873;1299;22806;-25
2022/01/31 01:05:01;;;;;;;9.80;1.40;;;;;;;1.33;69.12;98960.63;103862;1299;24323;-27
2022/01/31 01:07:27;;;;;;;7.20;0.60;;;;;;;1.23;69.77;98969.88;103833;1299;24170;-29
2022/01/31 01:09:53;;;;;;;20.10;4.00;;;;;;;1.42;68.81;98957.64;103810;1298;24663;-25
2022/01/31 01:12:18;;;;;;;27.90;4.70;;;;;;;1.55;68.25;98963.25;103949;1299;24221;-29
2022/01/31 01:14:44;;;;;;;10.80;0.70;;;;;;;1.41;68.17;98953.83;103867;1297;24427;-29
2022/01/31 01:17:10;;;;;;;20.10;3.60;;;;;;;1.16;69.57;98955.40;103907;1299;24171;-28
2022/01/31 01:19:36;;;;;;;15.00;2.70;;;;;;;1.05;69.94;98955.38;103603;1298;24282;-31
2022/01/31 01:22:02;;;;;;;6.10;1.20;;;;;;;1.00;70.08;98954.09;103877;1297;24296;-25
2022/01/31 01:24:28;;;;;;;15.10;2.80;;;;;;;0.88;70.82;98963.48;103873;1297;24233;-26
2022/01/31 01:26:54;;;;;;;11.40;1.50;;;;;;;1.04;70.80;98961.69;103853;1297;24299;-25
2022/01/31 01:29:20;;;;;;;16.80;1.70;;;;;;;0.88;71.49;98961.56;103883;1299;24321;-24
2022/01/31 01:31:48;;;;;;;19.50;3.30;;;;;;;1.31;69.94;98958.20;103855;1299;23417;-29
2022/01/31 01:34:16;;;;;;;6.80;2.30;;;;;;;1.28;69.74;98965.14;103825;1299;24327;-31
2022/01/31 01:36:43;;;;;;;10.50;1.60;;;;;;;1.02;70.72;98964.34;103903;1297;24319;-26
2022/01/31 01:39:09;;;;;;;6.40;2.30;;;;;;;1.37;70.09;98960.46;103866;1297;24330;-29
2022/01/31 01:41:35;;;;;;;11.90;2.00;;;;;;;1.41;69.51;98954.39;103784;1297;24438;-29
2022/01/31 01:44:01;;;;;;;9.70;1.90;;;;;;;1.24;70.25;98950.18;103846;1299;24299;-25
2022/01/31 01:46:27;;;;;;;11.30;2.40;;;;;;;1.24;70.12;98942.92;103862;1297;22512;-26
2022/01/31 01:48:52;;;;;;;20.10;3.90;;;;;;;1.17;70.21;98932.07;103846;1299;24327;-30
2022/01/31 01:51:18;;;;;;;21.70;6.20;;;;;;;1.02;70.38;98929.39;103893;1298;24339;-30
2022/01/31 01:53:44;;;;;;;16.80;4.20;;;;;;;1.09;70.18;98927.88;103834;1299;24404;-26
2022/01/31 01:56:09;;;;;;;13.90;4.60;;;;;;;1.02;70.59;98924.79;103860;1297;24170;-30
2022/01/31 01:58:39;;;;;;;7.00;2.40;;;;;;;1.20;69.67;98919.55;103926;1299;24389;-26
2022/01/31 02:01:05;;;;;;;7.50;1.00;;;;;;;0.90;71.03;98913.49;103828;1297;24362;-26
2022/01/31 02:03:32;;;;;;;20.70;3.10;;;;;;;1.00;70.81;98910.25;103846;1297;24160;-25
2022/01/31 02:05:58;;;;;;;7.00;1.80;;;;;;;1.25;70.36;98906.59;103921;1299;24368;-29
2022/01/31 02:08:25;;;;;;;9.20;2.90;;;;;;;1.04;70.61;98912.98;103910;1299;24262;-26
2022/01/31 02:10:51;;;;;;;15.80;1.70;;;;;;;1.23;70.32;98915.17;103869;1299;24305;-25
2022/01/31 02:13:17;;;;;;;13.80;3.40;;;;;;;1.09;71.05;98916.88;103823;1297;24231;-29
2022/01/31 02:15:46;;;;;;;26.00;5.00;;;;;;;1.15;70.89;98912.08;103902;1299;24214;-25
2022/01/31 02:18:12;;;;;;;10.20;1.50;;;;;;;1.30;70.16;98907.81;103997;1297;22707;-28
2022/01/31 02:20:38;;;;;;;11.00;3.20;;;;;;;1.06;70.80;98911.42;103861;1297;24206;-27
2022/01/31 02:23:06;;;;;;;11.80;2.80;;;;;;;1.31;69.80;98898.91;103910;1299;22581;-24
2022/01/31 02:25:32;;;;;;;21.40;4.20;;;;;;;1.06;70.47;98898.52;103894;1297;24214;-29
2022/01/31 02:27:58;;;;;;;15.50;1.80;;;;;;;1.15;70.17;98889.01;103844;1299;24250;-25
2022/01/31 02:30:24;;;;;;;18.60;1.80;;;;;;;1.26;69.72;98889.76;103848;1299;22992;-25
2022/01/31 02:32:50;;;;;;;11.50;3.20;;;;;;;1.34;69.64;98886.14;103838;1299;24160;-25
2022/01/31 02:35:16;;;;;;;10.40;2.70;;;;;;;1.13;70.22;98878.80;103908;1299;24383;-26
2022/01/31 02:37:42;;;;;;;11.10;3.00;;;;;;;1.18;70.54;98876.20;103894;1297;24132;-31
2022/01/31 02:40:08;;;;;;;11.90;2.80;;;;;;;1.14;70.35;98869.73;103844;1299;24431;-26
2022/01/31 02:42:33;;;;;;;21.70;3.10;;;;;;;1.14;70.24;98871.10;103865;1299;24345;-24
2022/01/31 02:44:59;;;;;;;20.10;9.90;;;;;;;0.93;71.06;98873.16;103816;1297;24227;-25
2022/01/31 02:47:28;;;;;;;20.30;4.40;;;;;;;0.79;71.32;98870.81;103839;1297;24257;-31
2022/01/31 02:49:58;;;;;;;6.30;2.00;;;;;;;1.04;70.77;98863.99;103863;1297;24291;-30
2022/01/31 02:52:26;;;;;;;16.90;1.70;;;;;;;1.01;70.65;98859.20;103829;1299;24375;-26
2022/01/31 02:54:52;;;;;;;13.30;3.30;;;;;;;0.87;71.25;98857.66;103965;1299;24221;-26
2022/01/31 02:57:18;;;;;;;9.40;2.30;;;;;;;0.75;71.48;98856.10;103875;1297;24230;-31
2022/01/31 02:59:43;;;;;;;8.90;1.90;;;;;;;0.44;72.59;98853.73;103838;1299;24859;-25
2022/01/31 03:02:09;;;;;;;5.20;1.60;;;;;;;0.60;71.61;98863.12;103781;1299;24220;-25
2022/01/31 03:04:35;;;;;;;7.30;1.50;;;;;;;0.36;72.68;98861.52;103841;1298;24341;-25
2022/01/31 03:07:00;;;;;;;11.80;3.00;;;;;;;0.30;72.98;98858.55;103868;1297;24343;-27
2022/01/31 03:09:26;;;;;;;14.00;1.70;;;;;;;0.54;72.27;98848.05;103845;1297;24302;-25
2022/01/31 03:11:52;;;;;;;7.90;2.90;;;;;;;0.41;72.55;98844.88;103885;1297;24216;-24
2022/01/31 03:14:19;;;;;;;11.40;1.70;;;;;;;0.82;71.15;98837.80;103848;1299;25345;-24
2022/01/31 03:16:45;;;;;;;7.10;1.10;;;;;;;0.69;71.43;98834.73;103881;1299;24279;-24
2022/01/31 03:19:12;;;;;;;13.90;1.90;;;;;;;0.54;71.89;98825.42;103844;1299;24389;-31
2022/01/31 03:21:38;;;;;;;8.50;3.20;;;;;;;0.80;70.95;98818.78;103849;1299;24358;-25
2022/01/31 03:24:04;;;;;;;7.60;2.40;;;;;;;0.89;70.41;98803.41;103819;1299;24220;-30
2022/01/31 03:26:30;;;;;;;4.50;0.80;;;;;;;0.71;71.32;98806.02;103826;1297;24342;-25
2022/01/31 03:28:56;;;;;;;8.80;2.10;;;;;;;0.36;72.32;98797.00;103788;1297;24259;-30
2022/01/31 03:31:21;;;;;;;7.60;1.60;;;;;;;0.44;72.42;98788.39;103821;1297;24282;-25
2022/01/31 03:33:48;;;;;;;5.30;0.90;;;;;;;0.50;72.17;98781.98;103883;1299;22779;-31
2022/01/31 03:36:14;;;;;;;9.30;1.20;;;;;;;0.38;72.98;98785.14;103851;1297;22573;-29
2022/01/31 03:38:41;;;;;;;22.60;2.60;;;;;;;0.55;72.58;98785.02;103852;1297;24183;-25
2022/01/31 03:41:08;;;;;;;4.70;1.50;;;;;;;0.42;72.77;98782.95;103834;1297;24304;-31
2022/01/31 03:43:34;;;;;;;19.60;4.00;;;;;;;0.55;72.36;98779.70;103807;1299;24132;-31
2022/01/31 03:46:00;;;;;;;6.90;0.80;;;;;;;0.77;71.78;98773.36;103873;1299;24357;-25
2022/01/31 03:48:28;;;;;;;9.70;1.50;;;;;;;0.78;71.68;98769.40;103740;1299;24334;-24
2022/01/31 03:50:54;;;;;;;14.10;3.00;;;;;;;0.58;72.42;98764.83;103862;1297;22707;-29
2022/01/31 03:53:20;;;;;;;6.80;1.40;;;;;;;0.85;71.92;98759.55;103921;1299;24204;-24
2022/01/31 03:55:46;;;;;;;8.60;1.60;;;;;;;0.75;72.16;98766.33;103795;1299;24318;-29
2022/01/31 03:58:11;;;;;;;2.90;1.00;;;;;;;0.76;72.27;98765.55;103896;1297;24256;-29
2022/01/31 04:00:37;;;;;;;11.80;1.20;;;;;;;0.70;72.58;98759.80;103838;1297;24249;-25
2022/01/31 04:03:03;;;;;;;6.20;0.70;;;;;;;0.77;72.60;98755.97;103856;1298;24259;-29
2022/01/31 04:05:28;;;;;;;7.50;1.90;;;;;;;0.62;73.01;98753.17;103849;1297;24378;-29
2022/01/31 04:07:54;;;;;;;5.60;0.70;;;;;;;0.70;73.08;98754.99;103834;1297;24196;-25
2022/01/31 04:10:19;;;;;;;4.60;1.70;;;;;;;0.59;73.57;98749.94;103475;1297;488655;-29
2022/01/31 04:12:45;;;;;;;18.60;0.70;;;;;;;0.66;73.55;98742.78;103759;1296;24362;-25
2022/01/31 04:15:11;;;;;;;4.60;1.80;;;;;;;0.57;74.07;98734.57;103816;1297;24301;-30
2022/01/31 04:17:38;;;;;;;11.40;2.00;;;;;;;0.70;73.77;98729.45;103853;1297;24338;-29
2022/01/31 04:20:07;;;;;;;9.70;1.40;;;;;;;0.56;74.47;98727.31;103894;1299;24448;-25
2022/01/31 04:22:35;;;;;;;7.90;1.70;;;;;;;0.65;74.48;98714.08;103873;1297;24449;-29
2022/01/31 04:25:05;;;;;;;31.70;4.50;;;;;;;0.84;74.11;98704.48;103820;1297;24438;-29
2022/01/31 04:27:43;;;;;;;9.40;3.20;;;;;;;0.75;74.09;98702.34;103815;1297;24409;-26
2022/01/31 04:30:12;;;;;;;15.00;2.10;;;;;;;0.77;74.51;98698.30;103860;1297;24199;-29
2022/01/31 04:36:32;;;;;;;6.30;1.10;;;;;;;0.59;75.37;98694.98;103821;1299;22895;-29
2022/01/31 04:38:58;;;;;;;6.20;0.50;;;;;;;0.30;76.66;98693.94;103811;1297;24323;-29
2022/01/31 04:41:24;;;;;;;2.30;0.40;;;;;;;0.33;76.96;98690.70;103849;1297;22505;-30
2022/01/31 04:43:50;;;;;;;11.70;2.10;;;;;;;0.55;76.19;98679.55;103829;1297;24299;-29
2022/01/31 04:46:16;;;;;;;6.20;0.80;;;;;;;0.52;76.20;98671.67;103785;1297;24222;-30
2022/01/31 04:48:43;;;;;;;18.80;4.00;;;;;;;0.43;76.91;98671.71;103846;1299;24320;-27
2022/01/31 04:51:10;;;;;;;12.50;2.50;;;;;;;0.65;76.07;98662.99;103801;1297;24323;-29
2022/01/31 04:53:36;;;;;;;8.30;2.30;;;;;;;0.71;75.73;98657.89;103635;1298;24183;-25
2022/01/31 04:56:03;;;;;;;20.70;2.90;;;;;;;0.64;75.86;98655.34;103891;1297;22528;-29
2022/01/31 04:58:31;;;;;;;25.00;3.10;;;;;;;0.84;75.78;98648.05;103815;1297;24192;-26
2022/01/31 05:00:56;;;;;;;12.60;2.90;;;;;;;1.01;74.76;98649.75;103773;1298;24221;-29
2022/01/31 05:03:22;;;;;;;16.70;2.30;;;;;;;0.94;74.92;98649.36;103860;1297;24196;-25
2022/01/31 05:05:48;;;;;;;8.80;1.60;;;;;;;0.84;75.49;98644.98;103852;1299;24413;-25
2022/01/31 05:08:14;;;;;;;7.10;1.50;;;;;;;1.02;74.79;98645.46;103885;1299;24352;-31
2022/01/31 05:10:44;;;;;;;5.90;1.50;;;;;;;1.06;74.60;98643.63;103860;1297;24194;-25
2022/01/31 05:13:12;;;;;;;21.40;2.20;;;;;;;0.87;75.34;98644.25;103870;1297;22517;-27
2022/01/31 05:15:37;;;;;;;7.40;2.10;;;;;;;0.84;75.70;98641.27;103915;1299;24186;-26
2022/01/31 05:18:04;;;;;;;11.60;2.50;;;;;;;0.92;75.44;98642.04;103836;1299;24327;-30
2022/01/31 05:20:29;;;;;;;7.00;1.90;;;;;;;0.90;75.72;98641.92;103744;1297;24299;-29
2022/01/31 05:22:55;;;;;;;5.10;1.30;;;;;;;0.81;76.14;98640.80;103776;1299;22511;-30
2022/01/31 05:25:20;;;;;;;13.40;0.90;;;;;;;0.85;76.23;98636.23;103829;1299;24317;-25
2022/01/31 05:27:46;;;;;;;22.60;2.30;;;;;;;1.06;75.13;98635.17;103887;1299;24483;-29
2022/01/31 05:30:12;;;;;;;13.00;1.50;;;;;;;0.96;75.72;98634.70;103807;1297;24251;-30
2022/01/31 05:32:38;;;;;;;7.30;1.50;;;;;;;1.04;75.36;98627.80;103860;1298;24250;-31
2022/01/31 05:35:05;;;;;;;14.40;1.70;;;;;;;0.75;76.59;98630.54;103789;1297;22746;-25
2022/01/31 05:37:31;;;;;;;8.00;2.60;;;;;;;0.79;76.84;98623.77;103880;1299;24220;-27
2022/01/31 05:39:58;;;;;;;26.60;3.60;;;;;;;0.75;76.81;98622.15;103872;1299;24299;-29
2022/01/31 05:42:23;;;;;;;26.20;4.60;;;;;;;0.93;76.43;98613.67;103810;1297;24444;-25
2022/01/31 05:44:49;;;;;;;19.30;3.30;;;;;;;0.95;76.28;98613.02;103816;1297;24210;-29
2022/01/31 05:47:15;;;;;;;8.90;1.30;;;;;;;1.07;75.70;98612.98;103834;1299;24250;-27
2022/01/31 05:49:41;;;;;;;10.10;1.70;;;;;;;0.92;76.59;98608.02;103797;1297;24370;-25
2022/01/31 05:52:07;;;;;;;14.90;3.50;;;;;;;0.81;77.12;98599.97;103809;1298;24167;-29
2022/01/31 05:54:34;;;;;;;13.50;2.00;;;;;;;0.82;77.39;98600.69;103876;1298;24250;-29
2022/01/31 05:57:00;;;;;;;8.30;1.80;;;;;;;0.92;77.03;98600.42;103765;1299;24214;-30
2022/01/31 05:59:26;;;;;;;15.00;3.30;;;;;;;1.04;76.78;98598.20;103858;1299;24211;-29
2022/01/31 06:01:52;;;;;;;13.60;3.50;;;;;;;1.41;75.09;98589.26;103864;1298;24325;-29
2022/01/31 06:04:18;;;;;;;22.40;3.00;;;;;;;1.15;76.12;98585.45;103843;1299;24313;-25
2022/01/31 06:06:44;;;;;;;12.60;1.90;;;;;;;1.03;76.63;98577.64;103754;1299;24322;-25
2022/01/31 06:09:09;;;;;;;9.70;2.10;;;;;;;1.11;76.11;98572.73;103835;1299;24332;-25
2022/01/31 06:11:35;;;;;;;5.20;2.30;;;;;;;0.94;76.94;98573.95;103785;1298;24489;-29
2022/01/31 06:14:02;;;;;;;30.50;4.10;;;;;;;1.03;76.91;98574.97;103793;1299;24208;-25
2022/01/31 06:16:28;;;;;;;16.00;2.80;;;;;;;1.11;76.34;98570.95;103840;1299;22755;-31
2022/01/31 06:18:54;;;;;;;8.80;1.90;;;;;;;0.97;76.83;98566.60;103768;1299;24213;-29
2022/01/31 06:21:19;;;;;;;15.10;2.10;;;;;;;0.97;77.14;98562.40;103924;1297;24229;-29
2022/01/31 06:23:45;;;;;;;9.70;2.40;;;;;;;0.92;77.42;98560.76;103842;1296;24208;-29
2022/01/31 06:26:11;;;;;;;11.20;1.90;;;;;;;0.73;78.18;98558.42;103868;1297;24200;-25
2022/01/31 06:28:37;;;;;;;9.50;1.80;;;;;;;0.86;77.85;98553.04;103908;1298;22765;-25
2022/01/31 06:31:02;;;;;;;16.60;2.00;;;;;;;0.86;77.57;98555.17;103817;1299;24271;-25
2022/01/31 06:33:28;;;;;;;20.60;1.80;;;;;;;0.77;78.20;98554.48;103820;1299;24328;-24
2022/01/31 06:35:54;;;;;;;14.50;1.00;;;;;;;0.59;79.08;98554.05;103878;1297;22638;-25
2022/01/31 06:38:21;;;;;;;10.20;1.20;;;;;;;0.45;79.84;98550.14;103882;1299;24212;-29
2022/01/31 06:40:47;;;;;;;2.80;1.30;;;;;;;0.41;80.12;98549.86;103914;1299;24205;-31
2022/01/31 06:43:13;;;;;;;7.80;0.80;;;;;;;0.38;80.42;98548.27;103881;1297;22839;-29
2022/01/31 06:45:39;;;;;;;19.10;1.50;;;;;;;0.33;80.67;98546.48;103840;1299;24206;-30
2022/01/31 06:48:05;;;;;;;6.60;1.00;;;;;;;0.46;80.56;98549.73;103863;1299;22500;-31
2022/01/31 06:50:31;;;;;;;14.30;0.90;;;;;;;0.49;80.34;98540.94;103898;1297;24315;-26
2022/01/31 06:52:57;;;;;;;5.10;0.60;;;;;;;0.77;79.11;98540.49;103875;1297;24202;-26
2022/01/31 06:55:23;;;;;;;16.00;2.20;;;;;;;0.49;79.98;98542.16;103624;1297;24411;-29
2022/01/31 06:57:51;;;;;;;10.00;3.10;;;;;;;0.58;79.77;98539.40;103866;1297;24304;-25
2022/01/31 07:00:18;;;;;;;6.20;1.50;;;;;;;0.55;79.91;98535.76;103937;1299;22621;-25
2022/01/31 07:02:45;;;;;;;11.50;1.80;;;;;;;0.61;79.64;98537.48;103875;1299;24087;-25
2022/01/31 07:05:13;;;;;;;14.30;2.80;;;;;;;0.58;79.88;98537.27;103888;1299;24222;-31
2022/01/31 07:07:39;;;;;;;19.30;1.50;;;;;;;0.51;80.08;98530.77;103936;1297;24192;-29
2022/01/31 07:10:05;;;;;;;12.30;3.40;;;;;;;0.55;80.09;98528.60;103836;1297;24292;-29
2022/01/31 07:12:35;;;;;;;11.60;3.10;;;;;;;0.56;80.16;98518.63;103895;1297;24342;-24
2022/01/31 07:15:01;;;;;;;7.40;1.80;;;;;;;0.54;80.09;98518.78;103876;1297;22621;-29
2022/01/31 07:17:27;;;;;;;8.30;2.20;;;;;;;0.68;79.54;98517.57;103815;1299;24164;-29
2022/01/31 07:19:53;;;;;;;28.60;3.60;;;;;;;0.78;79.42;98514.30;103889;1299;24315;-25
2022/01/31 07:22:22;;;;;;;5.30;1.60;;;;;;;0.94;78.23;98512.48;103858;1297;24449;-29
2022/01/31 07:24:52;;;;;;;10.90;2.30;;;;;;;0.64;79.22;98512.70;103862;1297;22716;-29
2022/01/31 07:27:17;;;;;;;8.20;1.30;;;;;;;0.82;79.01;98505.24;103857;1299;24225;-26
2022/01/31 07:29:45;;;;;;;4.10;0.90;;;;;;;0.82;78.79;98493.75;103887;1298;24812;-25
2022/01/31 07:32:11;;;;;;;15.30;2.70;;;;;;;0.72;79.11;98492.11;103811;1299;24185;-25
2022/01/31 07:34:38;;;;;;;10.60;1.20;;;;;;;0.70;79.43;98496.08;103894;1299;24339;-25
2022/01/31 07:37:04;;;;;;;18.60;3.40;;;;;;;0.75;79.37;98497.45;103829;1297;24265;-29
2022/01/31 07:39:30;;;;;;;24.80;2.10;;;;;;;0.69;79.50;98496.65;103806;1297;24261;-25
2022/01/31 07:41:55;;;;;;;20.70;1.90;;;;;;;0.71;79.04;98496.75;103854;1299;24185;-25
2022/01/31 07:44:21;;;;;;;10.40;1.20;;;;;;;0.84;78.50;98491.95;103787;1297;24149;-25
2022/01/31 07:46:49;;;;;;;5.00;1.00;;;;;;;0.74;78.71;98491.52;103809;1299;24299;-26
2022/01/31 07:49:15;;;;;;;10.30;1.10;;;;;;;0.70;79.26;98486.17;103883;1297;24316;-29
2022/01/31 07:51:41;;;;;;;6.90;0.90;;;;;;;0.76;78.59;98480.77;103847;1299;24355;-29
2022/01/31 07:54:07;;;;;;;17.00;2.70;;;;;;;0.85;78.44;98483.26;103850;1297;24229;-24
2022/01/31 07:56:33;;;;;;;18.60;3.10;;;;;;;0.83;78.30;98479.91;103843;1299;24687;-27
2022/01/31 07:58:59;;;;;;;16.50;1.90;;;;;;;1.03;77.45;98469.73;103806;1299;24287;-31
2022/01/31 08:01:26;;;;;;;18.40;2.60;;;;;;;0.91;77.61;98466.95;103825;1297;22736;-27
2022/01/31 08:03:53;;;;;;;11.10;2.10;;;;;;;0.89;78.00;98461.17;103964;1297;24202;-26
2022/01/31 08:06:19;;;;;;;14.50;3.10;;;;;;;0.91;78.10;98462.02;103820;1297;24291;-26
2022/01/31 08:08:44;;;;;;;13.00;1.40;;;;;;;0.98;77.50;98459.92;103859;1299;24268;-29
2022/01/31 08:11:10;;;;;;;4.60;1.90;;;;;;;0.89;78.09;98458.48;103850;1299;22967;-30
2022/01/31 08:13:36;;;;;;;11.10;1.40;;;;;;;0.87;78.51;98459.73;103799;1297;24346;-24
2022/01/31 08:18:32;;;;;;;6.20;1.30;;;;;;;1.07;77.29;98446.45;103994;1299;24183;-32
2022/01/31 08:20:59;;;;;;;5.40;1.30;;;;;;;1.01;77.40;98436.94;103983;1299;22570;-27
2022/01/31 08:23:24;;;;;;;18.00;3.20;;;;;;;1.45;75.34;98428.36;104067;1299;22706;-30
2022/01/31 08:25:51;;;;;;;12.00;1.80;;;;;;;1.41;75.22;98425.02;104295;1299;24340;-28
2022/01/31 08:28:18;;;;;;;9.90;2.40;;;;;;;1.16;76.29;98417.98;104157;1297;24208;-25
2022/01/31 08:30:54;;;;;;;4.70;1.40;;;;;;;1.10;76.56;98412.98;103947;1297;22521;-26
2022/01/31 08:33:32;;;;;;;8.10;2.60;;;;;;;1.57;74.87;98409.23;104231;1298;22808;-26
2022/01/31 08:36:00;;;;;;;6.60;1.00;;;;;;;1.52;74.57;98403.27;103867;1299;24421;-25
2022/01/31 08:38:26;;;;;;;44.80;1.30;;;;;;;1.78;73.42;98398.52;103849;1297;24208;-28
2022/01/31 08:40:51;;;;;;;14.70;2.40;;;;;;;1.73;73.09;98394.66;103879;1299;22653;-25
2022/01/31 08:43:18;;;;;;;9.30;2.20;;;;;;;1.41;74.42;98385.17;103915;1299;24269;-29
2022/01/31 08:45:44;;;;;;;3.60;0.50;;;;;;;1.51;74.05;98384.85;103917;1299;24336;-24
2022/01/31 08:48:10;;;;;;;14.10;3.10;;;;;;;1.45;74.45;98379.42;103810;1299;22499;-29
2022/01/31 08:50:35;;;;;;;10.40;1.80;;;;;;;1.35;74.87;98369.58;103834;1299;24271;-29
2022/01/31 08:53:01;;;;;;;13.20;1.60;;;;;;;1.31;75.30;98360.00;103907;1298;24212;-25
2022/01/31 08:55:27;;;;;;;23.80;1.50;;;;;;;1.34;74.69;98356.16;103855;1299;24325;-29
2022/01/31 08:57:55;;;;;;;11.90;2.60;;;;;;;1.52;73.95;98354.55;103779;1299;24293;-24
2022/01/31 09:00:21;;;;;;;9.10;1.80;;;;;;;1.64;73.19;98351.84;103930;1299;22583;-25
2022/01/31 09:03:02;;;;;;;12.20;2.20;;;;;;;1.48;73.51;98343.11;103969;1297;24185;-26
2022/01/31 09:05:28;;;;;;;8.50;0.90;;;;;;;1.63;73.35;98343.55;103890;1299;22643;-29
2022/01/31 09:07:53;;;;;;;23.10;2.80;;;;;;;1.73;72.72;98341.88;103874;1297;24190;-29
2022/01/31 09:10:19;;;;;;;54.90;19.60;;;;;;;1.79;72.21;98339.86;103878;1299;24180;-29
2022/01/31 09:12:45;;;;;;;100.10;24.10;;;;;;;2.14;70.59;98338.43;103894;1297;24328;-28
2022/01/31 09:15:12;;;;;;;52.40;8.90;;;;;;;2.09;70.30;98337.73;103813;1299;24193;-29
2022/01/31 09:17:39;;;;;;;31.20;7.30;;;;;;;2.14;70.61;98334.41;103785;1297;24330;-24
2022/01/31 09:20:06;;;;;;;79.80;10.90;;;;;;;2.20;69.74;98337.78;103982;1298;24213;-29
2022/01/31 09:22:32;;;;;;;95.20;17.60;;;;;;;1.79;71.64;98343.13;103867;1299;24339;-25
2022/01/31 09:24:57;;;;;;;102.10;26.60;;;;;;;2.19;69.60;98336.42;103831;1299;24448;-29
2022/01/31 09:27:23;;;;;;;52.00;17.70;;;;;;;2.40;68.71;98331.00;103662;1298;24222;-29
2022/01/31 09:29:49;;;;;;;47.00;16.30;;;;;;;2.05;69.47;98335.04;103665;1298;24306;-24
2022/01/31 09:32:20;;;;;;;85.40;22.00;;;;;;;2.05;70.11;98330.51;103917;1299;22514;-24
2022/01/31 09:34:46;;;;;;;26.10;10.60;;;;;;;2.24;69.02;98325.39;104075;1299;24202;-25
2022/01/31 09:37:12;;;;;;;107.60;23.60;;;;;;;1.90;70.76;98332.80;103805;1297;24361;-24
2022/01/31 09:39:38;;;;;;;34.40;9.80;;;;;;;1.76;71.17;98331.98;103775;1299;24382;-31
2022/01/31 09:42:06;;;;;;;71.80;17.80;;;;;;;1.76;71.23;98326.73;103890;1298;24275;-25
2022/01/31 09:44:44;;;;;;;21.60;7.40;;;;;;;1.90;71.21;98324.12;103861;1299;24182;-29
2022/01/31 09:49:39;;;;;;;43.20;10.40;;;;;;;1.77;71.44;98312.45;103891;1299;24219;-25
2022/01/31 09:52:05;;;;;;;46.80;10.80;;;;;;;1.68;71.73;98309.27;103923;1299;24340;-29
2022/01/31 09:54:31;;;;;;;12.40;3.30;;;;;;;1.81;71.48;98302.51;103886;1299;24300;-25
2022/01/31 09:56:57;;;;;;;6.20;2.00;;;;;;;1.75;71.86;98301.19;103881;1299;24594;-29
2022/01/31 09:59:22;;;;;;;10.40;3.30;;;;;;;1.68;72.07;98301.09;103768;1299;24311;-30
2022/01/31 10:01:54;;;;;;;13.30;7.30;;;;;;;1.68;72.46;98300.30;103858;1299;24241;-29
2022/01/31 10:04:24;;;;;;;25.70;2.90;;;;;;;1.95;71.30;98297.29;103924;1297;22710;-25
2022/01/31 10:06:52;;;;;;;22.90;1.90;;;;;;;1.85;71.23;98295.55;103981;1299;24285;-24
2022/01/31 10:09:20;;;;;;;8.40;4.20;;;;;;;1.85;71.37;98288.73;103819;1297;24062;-24
2022/01/31 10:11:50;;;;;;;15.50;4.40;;;;;;;1.83;71.48;98288.17;103982;1299;24347;-29
2022/01/31 10:16:49;;;;;;;7.90;1.80;;;;;;;1.99;69.76;98283.05;103976;1299;24208;-25
2022/01/31 10:19:15;;;;;;;12.50;3.40;;;;;;;2.00;69.62;98286.27;104074;1298;24312;-29
2022/01/31 10:21:48;;;;;;;24.40;4.80;;;;;;;1.62;71.41;98284.13;103901;1299;22619;-25
2022/01/31 10:24:16;;;;;;;12.10;1.70;;;;;;;1.87;70.15;98281.98;103788;1299;22573;-31
2022/01/31 10:26:41;;;;;;;22.40;2.60;;;;;;;1.90;70.06;98272.77;103908;1297;24210;-25
2022/01/31 10:29:10;;;;;;;22.80;3.20;;;;;;;1.71;71.31;98272.02;103887;1297;24346;-25
2022/01/31 10:31:35;;;;;;;9.60;2.40;;;;;;;1.64;72.21;98274.07;103876;1297;24214;-25
2022/01/31 10:34:08;;;;;;;9.50;3.50;;;;;;;1.67;71.63;98273.35;103908;1299;24288;-29
2022/01/31 10:36:35;;;;;;;20.00;2.00;;;;;;;1.76;71.31;98265.13;103980;1299;22808;-29
2022/01/31 10:39:06;;;;;;;7.20;1.30;;;;;;;1.66;71.33;98262.58;103837;1299;24187;-30
2022/01/31 10:44:45;;;;;;;18.80;2.10;;;;;;;1.92;71.14;98245.44;103704;1298;22524;-29
2022/01/31 10:52:06;;;;;;;14.20;2.10;;;;;;;2.11;69.81;98229.71;103931;1299;24208;-28
2022/01/31 10:56:59;;;;;;;20.10;4.80;;;;;;;1.97;70.41;98225.98;103844;1297;24302;-25
2022/01/31 10:59:29;;;;;;;14.80;4.00;;;;;;;1.89;70.85;98225.83;103911;1297;22512;-25
2022/01/31 11:01:56;;;;;;;21.30;4.60;;;;;;;1.92;71.43;98219.32;104005;1297;24339;-25
2022/01/31 11:04:22;;;;;;;17.90;2.20;;;;;;;1.92;71.57;98220.58;103934;1299;24249;-29
2022/01/31 11:06:49;;;;;;;13.50;5.30;;;;;;;1.98;70.77;98219.63;103913;1297;24225;-29
2022/01/31 11:09:17;;;;;;;20.70;3.50;;;;;;;2.01;70.82;98216.77;103761;1298;24293;-29
2022/01/31 11:11:45;;;;;;;10.40;2.10;;;;;;;1.86;71.44;98214.44;104003;1299;24316;-25
2022/01/31 11:14:12;;;;;;;24.10;3.30;;;;;;;2.04;71.34;98215.23;104022;1299;24197;-25
2022/01/31 11:16:38;;;;;;;14.00;1.60;;;;;;;2.07;70.53;98205.06;103897;1299;22520;-25
2022/01/31 11:19:08;;;;;;;6.60;1.10;;;;;;;2.11;69.94;98206.35;103933;1297;22508;-28
2022/01/31 11:21:36;;;;;;;10.90;2.50;;;;;;;2.11;70.88;98211.77;103931;1297;24217;-29
2022/01/31 11:24:04;;;;;;;14.00;3.50;;;;;;;2.13;71.91;98211.84;103961;1297;24185;-25
2022/01/31 11:26:35;;;;;;;8.60;1.40;;;;;;;2.31;72.18;98207.08;103972;1297;24220;-25
2022/01/31 11:29:01;;;;;;;7.60;1.70;;;;;;;2.48;70.91;98200.95;103768;1299;23968;-28
2022/01/31 11:31:27;;;;;;;11.10;2.00;;;;;;;2.49;69.92;98197.10;103977;1297;24401;-31
2022/01/31 11:33:58;;;;;;;10.20;1.90;;;;;;;2.35;70.64;98196.83;103837;1297;22723;-29
2022/01/31 11:36:24;;;;;;;16.00;1.50;;;;;;;2.41;70.88;98193.95;103711;1298;22565;-25
2022/01/31 11:38:51;;;;;;;14.10;2.20;;;;;;;2.41;69.78;98195.04;103904;1297;24205;-25
2022/01/31 11:41:16;;;;;;;11.70;2.10;;;;;;;2.41;69.83;98196.09;103654;1299;24319;-26
2022/01/31 11:43:46;;;;;;;9.60;1.70;;;;;;;2.50;70.10;98193.53;103889;1299;24292;-24
2022/01/31 11:46:12;;;;;;;15.00;2.30;;;;;;;2.41;70.20;98189.70;103766;1299;24215;-24